Estación de Calama Rural INIA

Ultimos registro cada 15 minutos 79
Estación Fecha / Hora Temperatura Humedad Lluvia Velocidad Dirección Radiación Presion
79 Calama Rural INIA 04-05-2026 19:30 11,2 36 0 0 0 8 780,5
78 Calama Rural INIA 04-05-2026 19:15 12,2 31,6 0 0 0 8 780,5
77 Calama Rural INIA 04-05-2026 19:00 14,1 30,8 0 0 0 8 780,3
76 Calama Rural INIA 04-05-2026 18:45 15,1 23,4 0 0 0 8 780,2
75 Calama Rural INIA 04-05-2026 18:30 16,1 21,6 0 0 0 8 780,1
74 Calama Rural INIA 04-05-2026 18:15 17,2 21,3 0 0,1 234 11 780,1
73 Calama Rural INIA 04-05-2026 18:00 18 19,6 0 0,4 242 15 780
72 Calama Rural INIA 04-05-2026 17:45 18,8 19 0 1 240 20 779,8
71 Calama Rural INIA 04-05-2026 17:30 19,7 17,6 0 1,5 238 26 779,8
70 Calama Rural INIA 04-05-2026 17:15 20,3 16,6 0 2,3 239 29 779,5
69 Calama Rural INIA 04-05-2026 17:00 20,6 15,8 0 3,9 239 34 779,4
68 Calama Rural INIA 04-05-2026 16:45 21,2 16,7 0 3,7 243 40 779,4
67 Calama Rural INIA 04-05-2026 16:30 22,3 14,9 0 3,8 238 227 779,4
66 Calama Rural INIA 04-05-2026 16:15 22,8 16,3 0 3,8 241 302 779,3
65 Calama Rural INIA 04-05-2026 16:00 23,2 16,1 0 3,6 242 345 779,2
64 Calama Rural INIA 04-05-2026 15:45 23,6 14,7 0 3,7 238 385 779,3
63 Calama Rural INIA 04-05-2026 15:30 23,9 14,4 0 3,5 239 429 779,4
62 Calama Rural INIA 04-05-2026 15:15 23,9 17,3 0 3,1 236 434 779,4
61 Calama Rural INIA 04-05-2026 15:00 23,9 16,1 0 3,5 236 492 779,4
60 Calama Rural INIA 04-05-2026 14:45 24 14,6 0 3,7 237 524 779,5
59 Calama Rural INIA 04-05-2026 14:30 24 15,2 0 3,4 242 549 779,5
58 Calama Rural INIA 04-05-2026 14:15 23,8 14,4 0 3,3 235 573 779,6
57 Calama Rural INIA 04-05-2026 14:00 23,9 14,5 0 3,6 234 595 779,6
56 Calama Rural INIA 04-05-2026 13:45 23,8 13,6 0 3,5 238 608 779,8
55 Calama Rural INIA 04-05-2026 13:30 23,9 13,6 0 3,1 235 628 780
54 Calama Rural INIA 04-05-2026 13:15 23,9 13,1 0 2,6 238 641 780
53 Calama Rural INIA 04-05-2026 13:00 23,5 13,3 0 2,3 239 632 780,1
52 Calama Rural INIA 04-05-2026 12:45 22,8 17,8 0 2,2 242 582 780,3
51 Calama Rural INIA 04-05-2026 12:30 22,8 12,6 0 2,2 241 602 780,4
50 Calama Rural INIA 04-05-2026 12:15 23,3 13,9 0 1,6 241 646 780,6
49 Calama Rural INIA 04-05-2026 12:00 23,6 12,9 0 2,2 238 550 780,8
48 Calama Rural INIA 04-05-2026 11:45 25,4 9,5 0 0,7 237 591 781
47 Calama Rural INIA 04-05-2026 11:30 25,7 10,2 0 0,7 239 581 781
46 Calama Rural INIA 04-05-2026 11:15 25,4 7,4 0 0 0 549 781
45 Calama Rural INIA 04-05-2026 11:00 24 10,1 0 0,6 62 484 781,3
44 Calama Rural INIA 04-05-2026 10:45 23,2 8,5 0 2 60 520 781,4
43 Calama Rural INIA 04-05-2026 10:30 22,7 8,8 0 1 58 513 781,5
42 Calama Rural INIA 04-05-2026 10:15 21 11,2 0 2,3 63 507 781,6
41 Calama Rural INIA 04-05-2026 10:00 19,5 9,1 0 2,6 72 381 781,6
40 Calama Rural INIA 04-05-2026 09:45 18,2 9,9 0 2,8 63 431 781,7
39 Calama Rural INIA 04-05-2026 09:30 16,7 8,9 0 3,4 66 380 781,7
38 Calama Rural INIA 04-05-2026 09:15 15,6 9,4 0 3,6 64 350 781,8
37 Calama Rural INIA 04-05-2026 09:00 14,7 10,6 0 3,8 62 336 781,8
36 Calama Rural INIA 04-05-2026 08:45 13,6 11,4 0 1,6 54 292 781,8
35 Calama Rural INIA 04-05-2026 08:30 12,4 11,5 0 2,6 60 240 781,8
34 Calama Rural INIA 04-05-2026 08:15 11,5 11,6 0 3,7 61 203 781,6
33 Calama Rural INIA 04-05-2026 08:00 10,7 11,6 0 2,8 54 158 781,4
32 Calama Rural INIA 04-05-2026 07:45 9,4 11,5 0 2,8 57 112 781,4
31 Calama Rural INIA 04-05-2026 07:30 8,6 12,2 0 3,1 62 50 781,4
30 Calama Rural INIA 04-05-2026 07:15 7,7 12,4 0 2,8 60 15 781,3
29 Calama Rural INIA 04-05-2026 07:00 8,1 12,7 0 3 60 10 781,1
28 Calama Rural INIA 04-05-2026 06:45 8,3 12,9 0 2,1 66 8 781,2
27 Calama Rural INIA 04-05-2026 06:30 8 12,6 0 2,9 65 8 781,1
26 Calama Rural INIA 04-05-2026 06:15 8,4 13 0 1,4 65 8 780,9
25 Calama Rural INIA 04-05-2026 06:00 9,2 12,3 0 0,7 48 8 780,8
24 Calama Rural INIA 04-05-2026 05:45 8,9 12,8 0 0,1 64 8 780,9
23 Calama Rural INIA 04-05-2026 05:30 10,4 12,7 0 0,6 60 8 780,9
22 Calama Rural INIA 04-05-2026 05:15 10,7 10,7 0 2 64 9 780,8
21 Calama Rural INIA 04-05-2026 05:00 10,6 11,2 0 2,6 55 8 781
20 Calama Rural INIA 04-05-2026 04:45 9,3 12,2 0 0,5 51 8 781
19 Calama Rural INIA 04-05-2026 04:30 9,3 13,4 0 0,2 59 8 780,9
18 Calama Rural INIA 04-05-2026 04:15 9,5 12,9 0 0,2 41 11 781,1
17 Calama Rural INIA 04-05-2026 04:00 9,8 12,3 0 0,5 54 8 781,1
16 Calama Rural INIA 04-05-2026 03:45 8,8 13,6 0 0,1 66 8 781,1
15 Calama Rural INIA 04-05-2026 03:30 7,2 16,2 0 0 0 8 781
14 Calama Rural INIA 04-05-2026 03:15 8,1 16,4 0 0 41 8 781,1
13 Calama Rural INIA 04-05-2026 03:00 9,7 14 0 0,4 48 8 781,4
12 Calama Rural INIA 04-05-2026 02:45 8,5 14 0 0 0 8 781,5
11 Calama Rural INIA 04-05-2026 02:30 9,5 15,9 0 0 53 8 781,5
10 Calama Rural INIA 04-05-2026 02:15 9,1 13,3 0 0,5 56 9 781,5
9 Calama Rural INIA 04-05-2026 02:00 8,3 16,2 0 0 0 8 781,5
8 Calama Rural INIA 04-05-2026 01:45 8,8 17,9 0 0 0 8 781,8
7 Calama Rural INIA 04-05-2026 01:30 8,6 15,3 0 0 0 8 781,8
6 Calama Rural INIA 04-05-2026 01:15 8,1 20,8 0 0 0 8 782
5 Calama Rural INIA 04-05-2026 01:00 8,7 20 0 0 0 8 782
4 Calama Rural INIA 04-05-2026 00:45 9,8 18 0 0 0 8 782
3 Calama Rural INIA 04-05-2026 00:30 9,6 16,3 0 0 0 8 782,3
2 Calama Rural INIA 04-05-2026 00:15 10,3 17,8 0 0 0 8 782,3
1 Calama Rural INIA 04-05-2026 00:00 10,9 18 0 0 0 10 782,1